Terminal Aerodrome Forecast
Issued by NWS

Home | Current Version | Previous Version | Text Only | Print | Product List | Glossary On
Versions: 1 2 3 4 5 6 7 8 9 10 11 12 13 14 15 16 17 18 19 20
000
FTUS43 KDLH 221000 AAC
TAFBRD
TAF AMD
KBRD 221012Z 2210/2306 29014KT P6SM BKN015
      TEMPO 2211/2213 SCT015
     FM221400 31014KT P6SM VCSH SCT016 BKN035
     FM221800 33014G22KT P6SM BKN035
     FM222200 34012KT P6SM SCT050=

USA.gov is the U.S. government's official web portal to all federal, state and local government web resources and services.